createdAt,value
2022-10-09T00:00:02.711Z,9.49
2022-10-09T00:05:04.476Z,9.45
2022-10-09T00:10:05.920Z,9.41
2022-10-09T00:15:07.756Z,9.31
2022-10-09T00:20:09.693Z,9.29
2022-10-09T00:25:11.619Z,9.22
2022-10-09T00:30:13.187Z,9.14
2022-10-09T00:35:14.228Z,9.09
2022-10-09T00:40:16.045Z,9.04
2022-10-09T00:45:17.593Z,8.97
2022-10-09T00:50:19.636Z,8.93
2022-10-09T00:55:21.183Z,8.87
2022-10-09T01:00:23.253Z,8.79
2022-10-09T01:05:24.884Z,8.72
2022-10-09T01:10:26.527Z,8.64
2022-10-09T01:15:28.812Z,8.56
2022-10-09T01:20:29.888Z,8.5
2022-10-09T01:25:31.341Z,8.49
2022-10-09T01:30:33.253Z,8.45
2022-10-09T01:35:34.937Z,8.41
2022-10-09T01:40:36.066Z,8.39
2022-10-09T01:45:37.656Z,8.38
2022-10-09T01:50:39.070Z,8.32
2022-10-09T01:55:40.849Z,8.31
2022-10-09T02:00:42.654Z,8.28
2022-10-09T02:05:44.078Z,8.26
2022-10-09T02:10:45.748Z,8.22
2022-10-09T02:15:47.315Z,8.2
2022-10-09T02:20:48.878Z,8.16
2022-10-09T02:25:50.902Z,8.07
2022-10-09T02:30:52.892Z,8.08
2022-10-09T02:35:54.554Z,8.06
2022-10-09T02:40:55.746Z,8.03
2022-10-09T02:45:57.562Z,8.03
2022-10-09T02:50:59.450Z,7.98
2022-10-09T02:56:01.288Z,7.94
2022-10-09T03:01:02.953Z,7.93
2022-10-09T03:06:04.149Z,7.9
2022-10-09T03:11:06.007Z,7.86
2022-10-09T03:16:07.495Z,7.82
2022-10-09T03:21:09.047Z,7.81
2022-10-09T03:26:11.035Z,7.79
2022-10-09T03:31:22.494Z,7.75
2022-10-09T03:36:14.794Z,7.73
2022-10-09T03:41:16.155Z,7.72
2022-10-09T03:46:17.685Z,7.67
2022-10-09T03:51:19.037Z,7.65
2022-10-09T03:56:20.984Z,7.61
2022-10-09T04:01:22.641Z,7.57
2022-10-09T04:06:24.189Z,7.51
2022-10-09T04:11:25.743Z,7.51
2022-10-09T04:16:27.976Z,7.49
2022-10-09T04:21:29.214Z,7.4
2022-10-09T04:26:30.967Z,7.42
2022-10-09T04:31:33.116Z,7.43
2022-10-09T04:36:34.881Z,7.42
2022-10-09T04:41:38.400Z,7.4
2022-10-09T04:46:37.949Z,7.33
2022-10-09T04:51:40.001Z,7.23
2022-10-09T04:56:41.740Z,7.13
2022-10-09T05:01:43.421Z,7.11
2022-10-09T05:06:45.312Z,7.09
2022-10-09T05:11:46.944Z,6.96
2022-10-09T05:17:08.753Z,6.96
2022-10-09T05:21:50.445Z,6.95
2022-10-09T05:26:52.444Z,6.94
2022-10-09T05:31:54.149Z,6.92
2022-10-09T05:36:55.391Z,6.9
2022-10-09T05:46:58.980Z,6.85
2022-10-09T06:12:07.087Z,6.86
2022-10-09T06:17:08.508Z,6.9
2022-10-09T06:32:13.337Z,7.11
2022-10-09T06:42:16.951Z,7.28
2022-10-09T07:02:23.772Z,7.57
2022-10-09T07:12:27.029Z,7.82
2022-10-09T07:17:28.502Z,7.91
2022-10-09T07:22:29.796Z,8.05
2022-10-09T07:27:31.597Z,8.2
2022-10-09T07:32:33.334Z,8.34
2022-10-09T07:37:34.998Z,8.45
2022-10-09T07:42:36.453Z,8.47
2022-10-09T07:47:38.453Z,8.6
2022-10-09T07:52:40.259Z,8.78
2022-10-09T07:57:42.340Z,8.91
2022-10-09T08:02:43.912Z,9.1
2022-10-09T08:07:45.797Z,9.18
2022-10-09T08:12:47.604Z,9.28
2022-10-09T08:17:49.111Z,9.39
2022-10-09T08:22:51.531Z,9.57
2022-10-09T08:27:52.465Z,9.64
2022-10-09T08:32:54.333Z,9.71
2022-10-09T08:37:55.597Z,9.88
2022-10-09T08:42:56.849Z,9.89
2022-10-09T08:47:58.756Z,10.03
2022-10-09T08:52:59.993Z,10.18
2022-10-09T08:58:01.617Z,10.44
2022-10-09T09:03:03.030Z,10.68
2022-10-09T09:08:05.007Z,10.91
2022-10-09T09:13:07.122Z,11.15
2022-10-09T09:18:09.362Z,11.17
2022-10-09T09:23:10.564Z,11.35
2022-10-09T09:28:12.550Z,11.5
2022-10-09T09:33:13.970Z,11.54
2022-10-09T09:38:15.783Z,11.61
2022-10-09T09:43:17.400Z,11.83
2022-10-09T09:48:19.243Z,12.09
2022-10-09T09:53:20.889Z,12.33
2022-10-09T09:58:29.214Z,12.55
2022-10-09T10:03:30.467Z,12.77
2022-10-09T10:08:32.160Z,12.89
2022-10-09T10:13:34.255Z,12.95
2022-10-09T10:18:35.693Z,13.12
2022-10-09T10:23:37.633Z,13.36
2022-10-09T10:28:39.634Z,13.4
2022-10-09T10:33:41.250Z,13.5
2022-10-09T10:38:42.552Z,13.61
2022-10-09T10:43:44.285Z,13.65
2022-10-09T10:48:46.305Z,13.53
2022-10-09T10:53:47.723Z,13.6
2022-10-09T10:58:49.458Z,13.73
2022-10-09T11:03:51.341Z,13.71
2022-10-09T11:08:52.519Z,13.71
2022-10-09T11:13:53.986Z,13.8
2022-10-09T11:18:55.757Z,13.93
2022-10-09T11:23:57.482Z,13.88
2022-10-09T11:28:59.368Z,13.94
2022-10-09T11:34:01.333Z,13.91
2022-10-09T11:39:02.974Z,14.01
2022-10-09T11:44:04.620Z,14
2022-10-09T11:49:06.753Z,13.89
2022-10-09T11:54:08.256Z,14.01
2022-10-09T11:59:09.944Z,14.12
2022-10-09T12:04:11.841Z,14.14
2022-10-09T12:09:13.309Z,14.2
2022-10-09T12:14:18.274Z,14.3
2022-10-09T12:19:16.331Z,14.29
2022-10-09T12:24:18.266Z,14.2
2022-10-09T12:29:19.929Z,14.25
2022-10-09T12:34:21.977Z,14.29
2022-10-09T12:39:23.883Z,14.29
2022-10-09T12:44:25.517Z,14.32
2022-10-09T12:49:27.196Z,14.31
2022-10-09T12:54:29.095Z,14.37
2022-10-09T12:59:30.560Z,14.47
2022-10-09T13:04:31.928Z,14.53
2022-10-09T13:09:33.205Z,14.45
2022-10-09T13:14:35.270Z,14.42
2022-10-09T13:19:37.073Z,14.49
2022-10-09T13:24:38.790Z,14.56
2022-10-09T13:29:40.921Z,14.54
2022-10-09T13:34:42.284Z,14.58
2022-10-09T13:39:44.171Z,14.65
2022-10-09T13:44:46.123Z,14.58
2022-10-09T13:49:48.065Z,14.62
2022-10-09T13:54:49.374Z,14.58
2022-10-09T13:59:51.124Z,14.54
2022-10-09T14:04:52.604Z,14.26
2022-10-09T14:09:54.261Z,14.18
2022-10-09T14:14:55.874Z,14.21
2022-10-09T14:19:57.975Z,14.19
2022-10-09T14:24:59.461Z,14.25
2022-10-09T14:30:00.886Z,14.23
2022-10-09T14:35:02.583Z,14.14
2022-10-09T14:40:04.484Z,14.15
2022-10-09T14:45:06.442Z,14.04
2022-10-09T14:50:08.551Z,13.94
2022-10-09T14:55:09.716Z,13.89
2022-10-09T15:00:11.663Z,13.87
2022-10-09T15:05:13.775Z,13.75
2022-10-09T15:10:15.775Z,13.65
2022-10-09T15:15:17.578Z,13.63
2022-10-09T15:20:19.431Z,13.52
2022-10-09T15:25:20.975Z,13.43
2022-10-09T15:30:22.241Z,13.47
2022-10-09T15:35:24.267Z,13.39
2022-10-09T15:40:25.340Z,13.32
2022-10-09T15:45:27.330Z,13.34
2022-10-09T15:50:28.963Z,13.39
2022-10-09T15:55:30.893Z,13.39
2022-10-09T16:00:33.014Z,13.39
2022-10-09T16:05:34.739Z,13.37
2022-10-09T16:10:36.811Z,13.26
2022-10-09T16:15:38.265Z,13.22
2022-10-09T16:20:40.367Z,13.22
2022-10-09T16:25:41.678Z,13.09
2022-10-09T16:30:43.800Z,13.05
2022-10-09T16:35:45.097Z,12.98
2022-10-09T16:41:01.235Z,12.93
2022-10-09T16:45:47.819Z,12.88
2022-10-09T16:50:49.383Z,12.86
2022-10-09T16:55:50.993Z,12.83
2022-10-09T17:00:52.537Z,12.76
2022-10-09T17:05:54.143Z,12.75
2022-10-09T17:10:55.837Z,12.72
2022-10-09T17:15:57.915Z,12.67
2022-10-09T17:20:59.815Z,12.63
2022-10-09T17:26:01.196Z,12.64
2022-10-09T17:31:03.361Z,12.62
2022-10-09T17:36:05.303Z,12.58
2022-10-09T17:41:06.847Z,12.57
2022-10-09T17:46:08.044Z,12.57
2022-10-09T17:51:10.046Z,12.55
2022-10-09T17:56:11.426Z,12.55
2022-10-09T18:01:13.316Z,12.53
2022-10-09T18:06:14.525Z,12.44
2022-10-09T18:11:16.267Z,12.37
2022-10-09T18:16:17.945Z,12.31
2022-10-09T18:21:20.228Z,12.21
2022-10-09T18:26:21.832Z,12.14
2022-10-09T18:31:23.807Z,12.07
2022-10-09T18:36:25.345Z,12
2022-10-09T18:41:27.309Z,11.91
2022-10-09T18:46:29.175Z,11.84
2022-10-09T18:51:30.489Z,11.74
2022-10-09T18:56:31.942Z,11.62
2022-10-09T19:01:34.158Z,11.57
2022-10-09T19:06:35.429Z,11.48
2022-10-09T19:11:36.940Z,11.39
2022-10-09T19:16:38.148Z,11.36
2022-10-09T19:21:40.113Z,11.32
2022-10-09T19:26:42.196Z,11.21
2022-10-09T19:31:43.653Z,11.13
2022-10-09T19:36:44.950Z,11.06
2022-10-09T19:41:46.182Z,10.98
2022-10-09T19:46:47.603Z,10.93
2022-10-09T19:51:49.392Z,10.87
2022-10-09T19:56:50.963Z,10.68
2022-10-09T20:01:56.631Z,10.69
2022-10-09T20:06:54.226Z,10.66
2022-10-09T21:17:19.526Z,10.22
2022-10-09T21:37:26.388Z,10.2
2022-10-09T21:42:28.353Z,10.2
2022-10-09T21:47:29.916Z,10.16
2022-10-09T21:52:31.428Z,10.13
2022-10-09T21:57:33.016Z,10.13
2022-10-09T22:12:38.338Z,10.03
2022-10-09T22:17:39.905Z,9.99
2022-10-09T22:22:41.558Z,9.93
2022-10-09T22:27:43.610Z,9.93
2022-10-09T22:32:45.189Z,9.88
2022-10-09T22:37:47.224Z,9.81
2022-10-09T22:42:49.252Z,9.78
2022-10-09T22:47:50.639Z,9.72
2022-10-09T22:52:52.153Z,9.64
2022-10-09T22:57:54.024Z,9.62
2022-10-09T23:02:55.470Z,9.58
2022-10-09T23:07:57.369Z,9.51
2022-10-09T23:12:58.891Z,9.47
2022-10-09T23:18:00.859Z,9.41
2022-10-09T23:23:02.631Z,9.35
2022-10-09T23:28:03.938Z,9.29
2022-10-09T23:33:05.673Z,9.25
2022-10-09T23:38:07.284Z,9.18
2022-10-09T23:43:09.271Z,9.14
2022-10-09T23:48:11.002Z,9.12
2022-10-09T23:53:12.407Z,9.07
2022-10-09T23:58:17.229Z,8.99
